sensor_id;sensor_type;location;lat;lon;timestamp;P1;durP1;ratioP1;P2;durP2;ratioP2
30000;SDS011;16845;48.670;9.000;2023-02-15T00:01:54;54.50;;;28.88;;
30000;SDS011;16845;48.670;9.000;2023-02-15T00:04:24;52.35;;;29.77;;
30000;SDS011;16845;48.670;9.000;2023-02-15T00:07:14;54.50;;;29.35;;
30000;SDS011;16845;48.670;9.000;2023-02-15T00:09:44;57.30;;;30.75;;
30000;SDS011;16845;48.670;9.000;2023-02-15T00:12:12;58.70;;;30.38;;
30000;SDS011;16845;48.670;9.000;2023-02-15T00:14:41;48.10;;;28.83;;
30000;SDS011;16845;48.670;9.000;2023-02-15T00:17:09;45.72;;;26.65;;
30000;SDS011;16845;48.670;9.000;2023-02-15T00:19:37;49.53;;;28.73;;
30000;SDS011;16845;48.670;9.000;2023-02-15T00:22:06;48.55;;;29.45;;
30000;SDS011;16845;48.670;9.000;2023-02-15T00:24:35;53.72;;;29.33;;
30000;SDS011;16845;48.670;9.000;2023-02-15T00:27:03;47.92;;;26.65;;
30000;SDS011;16845;48.670;9.000;2023-02-15T00:29:32;47.88;;;29.60;;
30000;SDS011;16845;48.670;9.000;2023-02-15T00:32:00;49.78;;;28.10;;
30000;SDS011;16845;48.670;9.000;2023-02-15T00:34:29;45.53;;;26.00;;
30000;SDS011;16845;48.670;9.000;2023-02-15T00:36:57;49.67;;;27.05;;
30000;SDS011;16845;48.670;9.000;2023-02-15T00:39:26;47.72;;;26.77;;
30000;SDS011;16845;48.670;9.000;2023-02-15T00:41:56;52.80;;;29.10;;
30000;SDS011;16845;48.670;9.000;2023-02-15T00:44:25;45.05;;;26.88;;
30000;SDS011;16845;48.670;9.000;2023-02-15T00:46:54;44.38;;;26.70;;
30000;SDS011;16845;48.670;9.000;2023-02-15T00:49:24;48.17;;;25.77;;
30000;SDS011;16845;48.670;9.000;2023-02-15T00:51:53;52.90;;;26.98;;
30000;SDS011;16845;48.670;9.000;2023-02-15T00:54:22;45.97;;;26.05;;
30000;SDS011;16845;48.670;9.000;2023-02-15T00:56:54;47.45;;;27.52;;
30000;SDS011;16845;48.670;9.000;2023-02-15T00:59:25;46.95;;;26.60;;
30000;SDS011;16845;48.670;9.000;2023-02-15T01:01:54;44.67;;;25.92;;
30000;SDS011;16845;48.670;9.000;2023-02-15T01:04:23;45.17;;;26.02;;
30000;SDS011;16845;48.670;9.000;2023-02-15T01:06:52;47.80;;;27.85;;
30000;SDS011;16845;48.670;9.000;2023-02-15T01:09:21;48.05;;;26.60;;
30000;SDS011;16845;48.670;9.000;2023-02-15T01:11:50;49.63;;;26.88;;
30000;SDS011;16845;48.670;9.000;2023-02-15T01:14:22;47.17;;;26.23;;
30000;SDS011;16845;48.670;9.000;2023-02-15T01:16:55;43.10;;;25.88;;
30000;SDS011;16845;48.670;9.000;2023-02-15T01:19:25;55.70;;;29.23;;
30000;SDS011;16845;48.670;9.000;2023-02-15T01:21:54;43.47;;;26.23;;
30000;SDS011;16845;48.670;9.000;2023-02-15T01:24:22;55.08;;;28.35;;
30000;SDS011;16845;48.670;9.000;2023-02-15T01:26:51;54.20;;;27.88;;
30000;SDS011;16845;48.670;9.000;2023-02-15T01:29:19;46.05;;;27.55;;
30000;SDS011;16845;48.670;9.000;2023-02-15T01:31:48;44.25;;;25.23;;
30000;SDS011;16845;48.670;9.000;2023-02-15T01:34:17;49.63;;;26.63;;
30000;SDS011;16845;48.670;9.000;2023-02-15T01:36:44;48.45;;;27.65;;
30000;SDS011;16845;48.670;9.000;2023-02-15T01:39:12;47.08;;;26.88;;
30000;SDS011;16845;48.670;9.000;2023-02-15T01:41:41;54.10;;;28.90;;
30000;SDS011;16845;48.670;9.000;2023-02-15T01:47:15;45.08;;;26.33;;
30000;SDS011;16845;48.670;9.000;2023-02-15T01:49:45;49.63;;;27.40;;
30000;SDS011;16845;48.670;9.000;2023-02-15T01:52:14;45.65;;;27.02;;
30000;SDS011;16845;48.670;9.000;2023-02-15T01:54:44;49.53;;;27.55;;
30000;SDS011;16845;48.670;9.000;2023-02-15T01:57:16;44.30;;;27.10;;
30000;SDS011;16845;48.670;9.000;2023-02-15T01:59:48;48.17;;;26.45;;
30000;SDS011;16845;48.670;9.000;2023-02-15T02:02:20;45.60;;;26.40;;
30000;SDS011;16845;48.670;9.000;2023-02-15T02:04:57;49.28;;;27.10;;
30000;SDS011;16845;48.670;9.000;2023-02-15T02:07:29;49.42;;;26.45;;
30000;SDS011;16845;48.670;9.000;2023-02-15T02:10:00;53.90;;;27.67;;
30000;SDS011;16845;48.670;9.000;2023-02-15T02:12:29;46.13;;;26.40;;
30000;SDS011;16845;48.670;9.000;2023-02-15T02:14:57;46.47;;;27.13;;
30000;SDS011;16845;48.670;9.000;2023-02-15T02:17:30;49.55;;;28.33;;
30000;SDS011;16845;48.670;9.000;2023-02-15T02:20:22;48.53;;;25.90;;
30000;SDS011;16845;48.670;9.000;2023-02-15T02:32:09;45.00;;;25.25;;
30000;SDS011;16845;48.670;9.000;2023-02-15T02:34:57;50.83;;;26.02;;
30000;SDS011;16845;48.670;9.000;2023-02-15T02:37:34;46.33;;;27.23;;
30000;SDS011;16845;48.670;9.000;2023-02-15T02:40:14;50.75;;;27.33;;
30000;SDS011;16845;48.670;9.000;2023-02-15T02:42:51;49.00;;;26.30;;
30000;SDS011;16845;48.670;9.000;2023-02-15T02:45:28;46.30;;;25.13;;
30000;SDS011;16845;48.670;9.000;2023-02-15T02:48:03;48.60;;;25.73;;
30000;SDS011;16845;48.670;9.000;2023-02-15T02:50:38;49.97;;;28.02;;
30000;SDS011;16845;48.670;9.000;2023-02-15T02:53:08;45.78;;;27.02;;
30000;SDS011;16845;48.670;9.000;2023-02-15T02:55:38;39.90;;;24.35;;
30000;SDS011;16845;48.670;9.000;2023-02-15T02:58:11;47.53;;;25.35;;
30000;SDS011;16845;48.670;9.000;2023-02-15T03:00:46;37.10;;;23.15;;
30000;SDS011;16845;48.670;9.000;2023-02-15T03:03:19;43.85;;;26.00;;
30000;SDS011;16845;48.670;9.000;2023-02-15T03:05:54;40.20;;;24.40;;
30000;SDS011;16845;48.670;9.000;2023-02-15T03:08:25;42.13;;;24.65;;
30000;SDS011;16845;48.670;9.000;2023-02-15T03:10:57;39.20;;;23.38;;
30000;SDS011;16845;48.670;9.000;2023-02-15T03:13:28;48.28;;;25.77;;
30000;SDS011;16845;48.670;9.000;2023-02-15T03:15:56;45.67;;;25.52;;
30000;SDS011;16845;48.670;9.000;2023-02-15T03:18:44;42.05;;;23.15;;
30000;SDS011;16845;48.670;9.000;2023-02-15T03:21:20;46.53;;;25.05;;
30000;SDS011;16845;48.670;9.000;2023-02-15T03:23:52;43.08;;;25.50;;
30000;SDS011;16845;48.670;9.000;2023-02-15T03:26:24;43.83;;;23.67;;
30000;SDS011;16845;48.670;9.000;2023-02-15T03:28:55;40.22;;;24.17;;
30000;SDS011;16845;48.670;9.000;2023-02-15T03:31:26;42.92;;;25.75;;
30000;SDS011;16845;48.670;9.000;2023-02-15T03:33:59;42.97;;;23.42;;
30000;SDS011;16845;48.670;9.000;2023-02-15T03:36:33;45.10;;;23.33;;
30000;SDS011;16845;48.670;9.000;2023-02-15T03:39:08;45.15;;;24.40;;
30000;SDS011;16845;48.670;9.000;2023-02-15T03:41:44;42.50;;;22.95;;
30000;SDS011;16845;48.670;9.000;2023-02-15T03:44:18;40.22;;;26.15;;
30000;SDS011;16845;48.670;9.000;2023-02-15T03:46:52;45.58;;;24.80;;
30000;SDS011;16845;48.670;9.000;2023-02-15T03:49:27;42.00;;;26.17;;
30000;SDS011;16845;48.670;9.000;2023-02-15T03:52:02;42.90;;;24.60;;
30000;SDS011;16845;48.670;9.000;2023-02-15T03:54:32;50.00;;;26.45;;
30000;SDS011;16845;48.670;9.000;2023-02-15T03:57:19;44.25;;;25.20;;
30000;SDS011;16845;48.670;9.000;2023-02-15T04:00:09;47.63;;;24.23;;
30000;SDS011;16845;48.670;9.000;2023-02-15T04:03:09;42.78;;;25.13;;
30000;SDS011;16845;48.670;9.000;2023-02-15T04:05:49;48.83;;;24.33;;
30000;SDS011;16845;48.670;9.000;2023-02-15T04:08:18;40.95;;;24.83;;
30000;SDS011;16845;48.670;9.000;2023-02-15T04:10:46;46.42;;;25.70;;
30000;SDS011;16845;48.670;9.000;2023-02-15T04:13:19;47.28;;;25.42;;
30000;SDS011;16845;48.670;9.000;2023-02-15T04:15:48;37.40;;;23.20;;
30000;SDS011;16845;48.670;9.000;2023-02-15T04:18:32;41.67;;;23.92;;
30000;SDS011;16845;48.670;9.000;2023-02-15T04:21:19;43.22;;;24.23;;
30000;SDS011;16845;48.670;9.000;2023-02-15T04:24:07;40.08;;;23.10;;
30000;SDS011;16845;48.670;9.000;2023-02-15T04:26:53;42.40;;;24.77;;
30000;SDS011;16845;48.670;9.000;2023-02-15T04:29:22;46.38;;;23.55;;
30000;SDS011;16845;48.670;9.000;2023-02-15T04:31:51;41.17;;;23.67;;
30000;SDS011;16845;48.670;9.000;2023-02-15T04:34:20;49.75;;;24.65;;
30000;SDS011;16845;48.670;9.000;2023-02-15T04:36:48;43.65;;;23.77;;
30000;SDS011;16845;48.670;9.000;2023-02-15T04:39:18;44.65;;;23.98;;
30000;SDS011;16845;48.670;9.000;2023-02-15T04:41:46;43.95;;;24.00;;
30000;SDS011;16845;48.670;9.000;2023-02-15T04:44:15;40.05;;;23.83;;
30000;SDS011;16845;48.670;9.000;2023-02-15T04:46:43;43.38;;;24.83;;
30000;SDS011;16845;48.670;9.000;2023-02-15T04:49:11;50.28;;;24.77;;
30000;SDS011;16845;48.670;9.000;2023-02-15T04:51:38;42.47;;;24.40;;
30000;SDS011;16845;48.670;9.000;2023-02-15T04:54:06;47.70;;;25.25;;
30000;SDS011;16845;48.670;9.000;2023-02-15T04:56:36;39.13;;;21.80;;
30000;SDS011;16845;48.670;9.000;2023-02-15T04:59:05;41.40;;;22.95;;
30000;SDS011;16845;48.670;9.000;2023-02-15T05:01:33;41.28;;;24.67;;
30000;SDS011;16845;48.670;9.000;2023-02-15T05:04:00;39.88;;;22.10;;
30000;SDS011;16845;48.670;9.000;2023-02-15T05:06:29;47.33;;;23.05;;
30000;SDS011;16845;48.670;9.000;2023-02-15T05:08:57;43.28;;;24.48;;
30000;SDS011;16845;48.670;9.000;2023-02-15T05:11:25;46.20;;;25.42;;
30000;SDS011;16845;48.670;9.000;2023-02-15T05:13:54;44.65;;;23.10;;
30000;SDS011;16845;48.670;9.000;2023-02-15T05:16:22;44.60;;;24.20;;
30000;SDS011;16845;48.670;9.000;2023-02-15T05:18:50;45.08;;;22.77;;
30000;SDS011;16845;48.670;9.000;2023-02-15T05:21:18;47.58;;;22.95;;
30000;SDS011;16845;48.670;9.000;2023-02-15T05:23:46;40.30;;;23.52;;
30000;SDS011;16845;48.670;9.000;2023-02-15T05:26:16;34.55;;;20.98;;
30000;SDS011;16845;48.670;9.000;2023-02-15T05:29:03;41.70;;;22.55;;
30000;SDS011;16845;48.670;9.000;2023-02-15T05:31:32;41.13;;;21.95;;
30000;SDS011;16845;48.670;9.000;2023-02-15T05:34:01;44.35;;;22.88;;
30000;SDS011;16845;48.670;9.000;2023-02-15T05:36:29;40.00;;;21.38;;
30000;SDS011;16845;48.670;9.000;2023-02-15T05:38:57;36.70;;;20.42;;
30000;SDS011;16845;48.670;9.000;2023-02-15T05:41:25;34.88;;;19.77;;
30000;SDS011;16845;48.670;9.000;2023-02-15T05:43:54;40.90;;;21.88;;
30000;SDS011;16845;48.670;9.000;2023-02-15T05:46:24;34.63;;;20.42;;
30000;SDS011;16845;48.670;9.000;2023-02-15T05:48:52;37.58;;;21.20;;
30000;SDS011;16845;48.670;9.000;2023-02-15T05:51:20;40.90;;;21.88;;
30000;SDS011;16845;48.670;9.000;2023-02-15T05:53:48;38.17;;;20.35;;
30000;SDS011;16845;48.670;9.000;2023-02-15T05:56:16;34.80;;;20.80;;
30000;SDS011;16845;48.670;9.000;2023-02-15T05:58:43;46.15;;;22.80;;
30000;SDS011;16845;48.670;9.000;2023-02-15T06:01:12;37.53;;;22.13;;
30000;SDS011;16845;48.670;9.000;2023-02-15T06:03:43;43.70;;;24.65;;
30000;SDS011;16845;48.670;9.000;2023-02-15T06:06:11;41.35;;;22.90;;
30000;SDS011;16845;48.670;9.000;2023-02-15T06:08:40;36.83;;;21.60;;
30000;SDS011;16845;48.670;9.000;2023-02-15T06:11:08;40.13;;;21.40;;
30000;SDS011;16845;48.670;9.000;2023-02-15T06:13:37;41.47;;;20.92;;
30000;SDS011;16845;48.670;9.000;2023-02-15T06:16:05;45.33;;;23.17;;
30000;SDS011;16845;48.670;9.000;2023-02-15T06:18:33;41.03;;;22.08;;
30000;SDS011;16845;48.670;9.000;2023-02-15T06:21:02;41.75;;;22.73;;
30000;SDS011;16845;48.670;9.000;2023-02-15T06:23:30;39.55;;;20.48;;
30000;SDS011;16845;48.670;9.000;2023-02-15T06:25:58;49.17;;;23.80;;
30000;SDS011;16845;48.670;9.000;2023-02-15T06:28:26;40.60;;;22.45;;
30000;SDS011;16845;48.670;9.000;2023-02-15T06:30:54;42.60;;;24.42;;
30000;SDS011;16845;48.670;9.000;2023-02-15T06:33:23;44.80;;;23.42;;
30000;SDS011;16845;48.670;9.000;2023-02-15T06:35:51;40.33;;;22.05;;
30000;SDS011;16845;48.670;9.000;2023-02-15T06:38:20;45.95;;;22.80;;
30000;SDS011;16845;48.670;9.000;2023-02-15T06:40:48;40.40;;;22.30;;
30000;SDS011;16845;48.670;9.000;2023-02-15T06:43:16;42.38;;;21.45;;
30000;SDS011;16845;48.670;9.000;2023-02-15T06:45:44;39.65;;;21.52;;
30000;SDS011;16845;48.670;9.000;2023-02-15T06:48:12;36.30;;;19.48;;
30000;SDS011;16845;48.670;9.000;2023-02-15T06:50:40;39.28;;;21.67;;
30000;SDS011;16845;48.670;9.000;2023-02-15T06:53:08;33.08;;;17.42;;
30000;SDS011;16845;48.670;9.000;2023-02-15T06:55:37;30.80;;;17.73;;
30000;SDS011;16845;48.670;9.000;2023-02-15T06:58:05;37.00;;;18.52;;
30000;SDS011;16845;48.670;9.000;2023-02-15T07:00:33;32.10;;;17.48;;
30000;SDS011;16845;48.670;9.000;2023-02-15T07:03:01;40.90;;;19.52;;
30000;SDS011;16845;48.670;9.000;2023-02-15T07:05:32;35.10;;;18.30;;
30000;SDS011;16845;48.670;9.000;2023-02-15T07:08:01;38.33;;;18.58;;
30000;SDS011;16845;48.670;9.000;2023-02-15T07:10:29;33.25;;;17.67;;
30000;SDS011;16845;48.670;9.000;2023-02-15T07:12:58;28.73;;;16.88;;
30000;SDS011;16845;48.670;9.000;2023-02-15T07:15:25;29.40;;;17.38;;
30000;SDS011;16845;48.670;9.000;2023-02-15T07:17:53;33.28;;;17.73;;
30000;SDS011;16845;48.670;9.000;2023-02-15T07:20:21;31.38;;;17.73;;
30000;SDS011;16845;48.670;9.000;2023-02-15T07:22:50;37.22;;;17.27;;
30000;SDS011;16845;48.670;9.000;2023-02-15T07:25:18;29.38;;;15.93;;
30000;SDS011;16845;48.670;9.000;2023-02-15T07:27:47;26.10;;;15.23;;
30000;SDS011;16845;48.670;9.000;2023-02-15T07:30:16;25.73;;;15.82;;
30000;SDS011;16845;48.670;9.000;2023-02-15T07:32:44;29.90;;;15.60;;
30000;SDS011;16845;48.670;9.000;2023-02-15T07:35:31;25.17;;;14.80;;
30000;SDS011;16845;48.670;9.000;2023-02-15T07:37:59;31.33;;;14.63;;
30000;SDS011;16845;48.670;9.000;2023-02-15T07:40:27;24.38;;;14.13;;
30000;SDS011;16845;48.670;9.000;2023-02-15T07:42:57;27.48;;;15.30;;
30000;SDS011;16845;48.670;9.000;2023-02-15T07:45:27;25.17;;;13.93;;
30000;SDS011;16845;48.670;9.000;2023-02-15T07:47:55;23.38;;;13.73;;
30000;SDS011;16845;48.670;9.000;2023-02-15T07:50:23;27.98;;;13.57;;
30000;SDS011;16845;48.670;9.000;2023-02-15T07:52:51;27.73;;;15.10;;
30000;SDS011;16845;48.670;9.000;2023-02-15T07:55:19;24.90;;;15.13;;
30000;SDS011;16845;48.670;9.000;2023-02-15T07:57:47;26.60;;;14.63;;
30000;SDS011;16845;48.670;9.000;2023-02-15T08:00:17;29.45;;;16.67;;
30000;SDS011;16845;48.670;9.000;2023-02-15T08:02:48;29.95;;;18.52;;
30000;SDS011;16845;48.670;9.000;2023-02-15T08:05:38;40.75;;;20.58;;
30000;SDS011;16845;48.670;9.000;2023-02-15T08:08:06;35.63;;;20.88;;
30000;SDS011;16845;48.670;9.000;2023-02-15T08:10:35;41.05;;;21.50;;
30000;SDS011;16845;48.670;9.000;2023-02-15T08:13:26;43.85;;;21.60;;
30000;SDS011;16845;48.670;9.000;2023-02-15T08:15:54;37.78;;;20.45;;
30000;SDS011;16845;48.670;9.000;2023-02-15T08:18:23;38.00;;;20.45;;
30000;SDS011;16845;48.670;9.000;2023-02-15T08:20:51;35.28;;;20.15;;
30000;SDS011;16845;48.670;9.000;2023-02-15T08:23:19;36.70;;;19.50;;
30000;SDS011;16845;48.670;9.000;2023-02-15T08:25:47;30.92;;;19.13;;
30000;SDS011;16845;48.670;9.000;2023-02-15T08:28:15;32.15;;;17.33;;
30000;SDS011;16845;48.670;9.000;2023-02-15T08:30:43;35.03;;;18.30;;
30000;SDS011;16845;48.670;9.000;2023-02-15T08:33:11;33.75;;;17.55;;
30000;SDS011;16845;48.670;9.000;2023-02-15T08:35:40;33.10;;;17.45;;
30000;SDS011;16845;48.670;9.000;2023-02-15T08:38:08;30.60;;;15.95;;
30000;SDS011;16845;48.670;9.000;2023-02-15T08:40:36;24.95;;;15.35;;
30000;SDS011;16845;48.670;9.000;2023-02-15T08:43:04;27.30;;;15.38;;
30000;SDS011;16845;48.670;9.000;2023-02-15T08:45:33;25.48;;;14.55;;
30000;SDS011;16845;48.670;9.000;2023-02-15T08:48:01;28.83;;;14.98;;
30000;SDS011;16845;48.670;9.000;2023-02-15T08:50:29;22.92;;;13.43;;
30000;SDS011;16845;48.670;9.000;2023-02-15T08:52:58;21.58;;;12.25;;
30000;SDS011;16845;48.670;9.000;2023-02-15T08:55:26;24.40;;;14.68;;
30000;SDS011;16845;48.670;9.000;2023-02-15T08:57:54;18.73;;;11.48;;
30000;SDS011;16845;48.670;9.000;2023-02-15T09:00:22;16.48;;;11.07;;
30000;SDS011;16845;48.670;9.000;2023-02-15T09:02:51;17.42;;;11.43;;
30000;SDS011;16845;48.670;9.000;2023-02-15T09:05:19;19.13;;;12.10;;
30000;SDS011;16845;48.670;9.000;2023-02-15T09:07:47;14.73;;;10.48;;
30000;SDS011;16845;48.670;9.000;2023-02-15T09:10:17;15.88;;;11.80;;
30000;SDS011;16845;48.670;9.000;2023-02-15T09:12:45;14.85;;;11.18;;
30000;SDS011;16845;48.670;9.000;2023-02-15T09:15:13;16.65;;;11.57;;
30000;SDS011;16845;48.670;9.000;2023-02-15T09:17:41;21.85;;;13.23;;
30000;SDS011;16845;48.670;9.000;2023-02-15T09:20:09;20.60;;;11.95;;
30000;SDS011;16845;48.670;9.000;2023-02-15T09:22:37;25.52;;;12.05;;
30000;SDS011;16845;48.670;9.000;2023-02-15T09:25:05;16.65;;;11.52;;
30000;SDS011;16845;48.670;9.000;2023-02-15T09:27:35;20.40;;;12.38;;
30000;SDS011;16845;48.670;9.000;2023-02-15T09:30:03;19.05;;;12.55;;
30000;SDS011;16845;48.670;9.000;2023-02-15T09:32:32;17.25;;;11.85;;
30000;SDS011;16845;48.670;9.000;2023-02-15T09:35:00;15.95;;;10.48;;
30000;SDS011;16845;48.670;9.000;2023-02-15T09:37:28;20.70;;;11.23;;
30000;SDS011;16845;48.670;9.000;2023-02-15T09:39:58;15.60;;;10.05;;
30000;SDS011;16845;48.670;9.000;2023-02-15T09:45:31;13.10;;;8.23;;
30000;SDS011;16845;48.670;9.000;2023-02-15T09:48:24;12.50;;;8.02;;
30000;SDS011;16845;48.670;9.000;2023-02-15T09:51:17;12.52;;;7.20;;
30000;SDS011;16845;48.670;9.000;2023-02-15T09:54:17;13.60;;;8.00;;
30000;SDS011;16845;48.670;9.000;2023-02-15T09:57:00;15.40;;;8.93;;
30000;SDS011;16845;48.670;9.000;2023-02-15T09:59:38;14.73;;;8.75;;
30000;SDS011;16845;48.670;9.000;2023-02-15T10:02:16;18.05;;;10.60;;
30000;SDS011;16845;48.670;9.000;2023-02-15T10:04:58;14.63;;;10.07;;
30000;SDS011;16845;48.670;9.000;2023-02-15T10:07:44;16.48;;;10.63;;
30000;SDS011;16845;48.670;9.000;2023-02-15T10:10:30;18.25;;;10.98;;
30000;SDS011;16845;48.670;9.000;2023-02-15T10:13:12;17.83;;;11.02;;
30000;SDS011;16845;48.670;9.000;2023-02-15T10:15:53;15.95;;;10.15;;
30000;SDS011;16845;48.670;9.000;2023-02-15T10:18:33;15.68;;;9.48;;
30000;SDS011;16845;48.670;9.000;2023-02-15T10:21:12;21.13;;;9.30;;
30000;SDS011;16845;48.670;9.000;2023-02-15T10:23:58;18.52;;;9.60;;
30000;SDS011;16845;48.670;9.000;2023-02-15T10:26:43;13.20;;;9.40;;
30000;SDS011;16845;48.670;9.000;2023-02-15T10:29:14;12.93;;;9.82;;
30000;SDS011;16845;48.670;9.000;2023-02-15T10:31:52;16.13;;;9.02;;
30000;SDS011;16845;48.670;9.000;2023-02-15T10:34:28;16.13;;;9.95;;
30000;SDS011;16845;48.670;9.000;2023-02-15T10:37:07;12.07;;;8.98;;
30000;SDS011;16845;48.670;9.000;2023-02-15T10:39:55;13.27;;;9.02;;
30000;SDS011;16845;48.670;9.000;2023-02-15T10:42:34;16.08;;;9.18;;
30000;SDS011;16845;48.670;9.000;2023-02-15T10:45:16;14.38;;;9.93;;
30000;SDS011;16845;48.670;9.000;2023-02-15T10:47:55;17.27;;;10.95;;
30000;SDS011;16845;48.670;9.000;2023-02-15T10:50:36;19.00;;;9.52;;
30000;SDS011;16845;48.670;9.000;2023-02-15T10:53:18;18.48;;;10.20;;
30000;SDS011;16845;48.670;9.000;2023-02-15T10:56:07;14.45;;;10.70;;
30000;SDS011;16845;48.670;9.000;2023-02-15T10:58:46;14.73;;;9.82;;
30000;SDS011;16845;48.670;9.000;2023-02-15T11:01:24;18.52;;;9.68;;
30000;SDS011;16845;48.670;9.000;2023-02-15T11:04:13;16.73;;;9.20;;
30000;SDS011;16845;48.670;9.000;2023-02-15T11:07:05;13.68;;;8.85;;
30000;SDS011;16845;48.670;9.000;2023-02-15T11:09:40;13.02;;;9.10;;
30000;SDS011;16845;48.670;9.000;2023-02-15T11:12:11;18.30;;;9.23;;
30000;SDS011;16845;48.670;9.000;2023-02-15T11:14:43;11.52;;;8.63;;
30000;SDS011;16845;48.670;9.000;2023-02-15T11:17:16;11.90;;;8.75;;
30000;SDS011;16845;48.670;9.000;2023-02-15T11:19:50;19.27;;;10.18;;
30000;SDS011;16845;48.670;9.000;2023-02-15T11:22:23;18.43;;;11.13;;
30000;SDS011;16845;48.670;9.000;2023-02-15T11:24:52;14.10;;;9.18;;
30000;SDS011;16845;48.670;9.000;2023-02-15T11:27:24;13.20;;;8.80;;
30000;SDS011;16845;48.670;9.000;2023-02-15T11:29:57;15.05;;;8.60;;
30000;SDS011;16845;48.670;9.000;2023-02-15T11:32:27;16.02;;;8.65;;
30000;SDS011;16845;48.670;9.000;2023-02-15T11:35:02;12.50;;;8.00;;
30000;SDS011;16845;48.670;9.000;2023-02-15T11:37:40;13.68;;;8.25;;
30000;SDS011;16845;48.670;9.000;2023-02-15T11:40:15;11.52;;;7.78;;
30000;SDS011;16845;48.670;9.000;2023-02-15T11:42:48;9.23;;;6.55;;
30000;SDS011;16845;48.670;9.000;2023-02-15T11:45:21;11.48;;;7.43;;
30000;SDS011;16845;48.670;9.000;2023-02-15T11:47:53;11.98;;;7.00;;
30000;SDS011;16845;48.670;9.000;2023-02-15T11:50:23;11.90;;;6.18;;
30000;SDS011;16845;48.670;9.000;2023-02-15T11:52:54;9.25;;;6.00;;
30000;SDS011;16845;48.670;9.000;2023-02-15T11:55:26;14.25;;;6.10;;
30000;SDS011;16845;48.670;9.000;2023-02-15T11:57:57;11.80;;;5.85;;
30000;SDS011;16845;48.670;9.000;2023-02-15T12:00:32;12.85;;;6.60;;
30000;SDS011;16845;48.670;9.000;2023-02-15T12:03:09;12.02;;;6.63;;
30000;SDS011;16845;48.670;9.000;2023-02-15T12:05:44;10.30;;;6.00;;
30000;SDS011;16845;48.670;9.000;2023-02-15T12:08:16;12.95;;;6.47;;
30000;SDS011;16845;48.670;9.000;2023-02-15T12:13:33;18.42;;;7.68;;
30000;SDS011;16845;48.670;9.000;2023-02-15T12:16:04;16.50;;;7.35;;
30000;SDS011;16845;48.670;9.000;2023-02-15T12:18:39;17.33;;;6.63;;
30000;SDS011;16845;48.670;9.000;2023-02-15T12:21:12;15.50;;;7.05;;
30000;SDS011;16845;48.670;9.000;2023-02-15T12:23:44;12.80;;;6.32;;
30000;SDS011;16845;48.670;9.000;2023-02-15T12:26:22;15.18;;;7.05;;
30000;SDS011;16845;48.670;9.000;2023-02-15T12:28:51;13.75;;;7.10;;
30000;SDS011;16845;48.670;9.000;2023-02-15T12:31:24;18.77;;;7.38;;
30000;SDS011;16845;48.670;9.000;2023-02-15T12:33:56;15.55;;;6.50;;
30000;SDS011;16845;48.670;9.000;2023-02-15T12:36:30;12.50;;;6.28;;
30000;SDS011;16845;48.670;9.000;2023-02-15T12:39:02;12.82;;;5.85;;
30000;SDS011;16845;48.670;9.000;2023-02-15T12:41:32;13.60;;;6.13;;
30000;SDS011;16845;48.670;9.000;2023-02-15T12:44:05;11.52;;;6.65;;
30000;SDS011;16845;48.670;9.000;2023-02-15T12:46:42;15.85;;;6.53;;
30000;SDS011;16845;48.670;9.000;2023-02-15T12:49:24;18.85;;;7.07;;
30000;SDS011;16845;48.670;9.000;2023-02-15T12:51:55;17.05;;;6.30;;
30000;SDS011;16845;48.670;9.000;2023-02-15T12:54:31;12.73;;;6.88;;
30000;SDS011;16845;48.670;9.000;2023-02-15T12:57:13;16.05;;;6.22;;
30000;SDS011;16845;48.670;9.000;2023-02-15T12:59:52;10.25;;;5.97;;
30000;SDS011;16845;48.670;9.000;2023-02-15T13:02:27;12.18;;;6.35;;
30000;SDS011;16845;48.670;9.000;2023-02-15T13:04:57;15.45;;;5.07;;
30000;SDS011;16845;48.670;9.000;2023-02-15T13:07:36;12.35;;;5.82;;
30000;SDS011;16845;48.670;9.000;2023-02-15T13:10:05;5.88;;;4.18;;
30000;SDS011;16845;48.670;9.000;2023-02-15T13:12:48;7.97;;;5.00;;
30000;SDS011;16845;48.670;9.000;2023-02-15T13:15:27;12.38;;;5.47;;
30000;SDS011;16845;48.670;9.000;2023-02-15T13:18:00;9.50;;;4.15;;
30000;SDS011;16845;48.670;9.000;2023-02-15T13:20:30;12.40;;;4.40;;
30000;SDS011;16845;48.670;9.000;2023-02-15T13:23:03;7.85;;;5.15;;
30000;SDS011;16845;48.670;9.000;2023-02-15T13:25:35;10.80;;;5.15;;
30000;SDS011;16845;48.670;9.000;2023-02-15T13:28:12;10.75;;;5.55;;
30000;SDS011;16845;48.670;9.000;2023-02-15T13:30:44;11.48;;;4.78;;
30000;SDS011;16845;48.670;9.000;2023-02-15T13:33:16;15.50;;;6.32;;
30000;SDS011;16845;48.670;9.000;2023-02-15T13:35:56;9.60;;;5.50;;
30000;SDS011;16845;48.670;9.000;2023-02-15T13:38:46;15.32;;;6.25;;
30000;SDS011;16845;48.670;9.000;2023-02-15T13:41:23;7.82;;;4.95;;
30000;SDS011;16845;48.670;9.000;2023-02-15T13:43:58;12.35;;;5.55;;
30000;SDS011;16845;48.670;9.000;2023-02-15T13:46:37;9.73;;;5.40;;
30000;SDS011;16845;48.670;9.000;2023-02-15T13:49:17;11.30;;;5.78;;
30000;SDS011;16845;48.670;9.000;2023-02-15T13:51:57;14.43;;;7.40;;
30000;SDS011;16845;48.670;9.000;2023-02-15T13:54:55;15.70;;;7.05;;
30000;SDS011;16845;48.670;9.000;2023-02-15T13:57:41;15.15;;;9.50;;
30000;SDS011;16845;48.670;9.000;2023-02-15T14:00:22;15.10;;;9.68;;
30000;SDS011;16845;48.670;9.000;2023-02-15T14:03:11;19.25;;;9.20;;
30000;SDS011;16845;48.670;9.000;2023-02-15T14:05:57;17.42;;;9.02;;
30000;SDS011;16845;48.670;9.000;2023-02-15T14:11:11;16.75;;;9.38;;
30000;SDS011;16845;48.670;9.000;2023-02-15T14:13:48;15.52;;;10.15;;
30000;SDS011;16845;48.670;9.000;2023-02-15T14:16:35;26.25;;;9.45;;
30000;SDS011;16845;48.670;9.000;2023-02-15T14:19:14;15.90;;;9.45;;
30000;SDS011;16845;48.670;9.000;2023-02-15T14:21:48;13.35;;;8.60;;
30000;SDS011;16845;48.670;9.000;2023-02-15T14:24:32;18.10;;;9.25;;
30000;SDS011;16845;48.670;9.000;2023-02-15T14:27:11;16.35;;;9.40;;
30000;SDS011;16845;48.670;9.000;2023-02-15T14:29:47;13.32;;;8.68;;
30000;SDS011;16845;48.670;9.000;2023-02-15T14:32:20;14.57;;;9.05;;
30000;SDS011;16845;48.670;9.000;2023-02-15T14:34:56;18.90;;;9.70;;
30000;SDS011;16845;48.670;9.000;2023-02-15T14:37:29;14.25;;;8.93;;
30000;SDS011;16845;48.670;9.000;2023-02-15T14:40:08;20.60;;;10.80;;
30000;SDS011;16845;48.670;9.000;2023-02-15T14:43:04;19.15;;;10.05;;
30000;SDS011;16845;48.670;9.000;2023-02-15T14:45:35;20.40;;;10.68;;
30000;SDS011;16845;48.670;9.000;2023-02-15T14:48:15;17.23;;;10.40;;
30000;SDS011;16845;48.670;9.000;2023-02-15T14:50:45;25.15;;;11.85;;
30000;SDS011;16845;48.670;9.000;2023-02-15T14:58:57;22.42;;;11.65;;
30000;SDS011;16845;48.670;9.000;2023-02-15T15:01:41;21.70;;;12.50;;
30000;SDS011;16845;48.670;9.000;2023-02-15T15:04:10;23.38;;;11.88;;
30000;SDS011;16845;48.670;9.000;2023-02-15T15:06:41;19.13;;;12.32;;
30000;SDS011;16845;48.670;9.000;2023-02-15T15:09:11;18.25;;;10.63;;
30000;SDS011;16845;48.670;9.000;2023-02-15T15:11:43;21.73;;;12.95;;
30000;SDS011;16845;48.670;9.000;2023-02-15T15:17:12;18.38;;;11.35;;
30000;SDS011;16845;48.670;9.000;2023-02-15T15:20:03;29.08;;;11.90;;
30000;SDS011;16845;48.670;9.000;2023-02-15T15:22:40;28.05;;;12.80;;
30000;SDS011;16845;48.670;9.000;2023-02-15T15:25:10;19.25;;;11.77;;
30000;SDS011;16845;48.670;9.000;2023-02-15T15:27:44;26.00;;;12.65;;
30000;SDS011;16845;48.670;9.000;2023-02-15T15:33:25;21.15;;;12.40;;